Telekinetic Charging Cell

Wiki Link

Singles

Count Wins Losses Win % Date
50 44 6 88% 02-04-2021
14 12 2 86% 03-04-2021
4 4 0 100% 04-04-2021
8 5 3 63% 05-04-2021
1 1 0 100% 06-04-2021
18 11 7 61% 07-04-2021
50 39 11 78% 08-04-2021
45 38 7 84% 09-04-2021
10 8 2 80% 10-04-2021
46 36 10 78% 11-04-2021
53 42 11 79% 12-04-2021
3 2 1 67% 13-04-2021
7 5 2 71% 14-04-2021

Matches

Count Wins Losses Win % Date
6 3 3 50% 05-04-2021
17 7 10 41% 06-04-2021
74 28 46 38% 07-04-2021
112 51 61 46% 08-04-2021
88 39 49 44% 09-04-2021
7 2 5 29% 10-04-2021
33 15 18 45% 11-04-2021
36 15 21 42% 12-04-2021
22 9 13 41% 13-04-2021
67 35 32 52% 14-04-2021